Hauptseite
METAR-TAF:

METAR-TAF

Flughäfen :

Plzeň, Tschechien

Breite: 49-40-31N, Länge: 13-16-29E, Höhe: 362 m

Beobachtung

Neuester Wetterbericht von vor 34 Minuten, um 03:00 UTC
Wind 4 kt aus Nordost, variierte zwischen Nord/Nordwest und Ost
Temperatur 1°C
Luftfeuchtigkeit 100%
Luftdruck 1013 hPa
Sichtweite: 4800 m
Durchbrochene Bewölkung in der Höhe von 400 ft
Geschlossene Wolkendecke in der Höhe von 1900 ft
feuchter Dunst

METAR: LKLN 210300Z AUTO 04004KT 340V080 4800 BR BKN004 OVC019 01/01 Q1013

Zeit: 04:34 (03:34 UTC)


TAF: fehlend

Wetterbeobachtungen und Prognosen von mehr als 4000 Flughäfen (METAR und TAF Bericht).

Die verfügbaren Stationen werden durch gelbe und rote Markierungen auf der Karte dargestellt.

Führen Sie die Maus auf sie, um den Namen der Station zu sehen.

Darauf klicken, um die Beobachtung von Wetterbeobachtungen und Prognosen zu sehen.

Um die Karte zu ändern : klicken Sie auf den grünen Tasten mit einem schwarzen Kreuz Zum Vergrößern, auf den grünen Button mit einem Gedankenstrich zu verkleinern, oder auf die grünen Pfeile für benachbarte Karten.


METAR-TAF: